createdAt,value
2022-08-29T00:00:26.581Z,18.52
2022-08-29T00:15:23.764Z,18.23
2022-08-29T00:30:23.529Z,17.90
2022-08-29T00:45:23.832Z,17.67
2022-08-29T01:00:29.432Z,17.62
2022-08-29T01:15:23.629Z,17.33
2022-08-29T01:30:24.165Z,17.25
2022-08-29T01:45:23.993Z,16.60
2022-08-29T02:00:26.912Z,16.40
2022-08-29T02:15:23.982Z,16.88
2022-08-29T02:30:24.003Z,16.85
2022-08-29T02:45:24.074Z,16.52
2022-08-29T03:00:26.596Z,16.55
2022-08-29T03:15:24.251Z,16.25
2022-08-29T03:30:24.207Z,16.33
2022-08-29T03:45:24.054Z,16.12
2022-08-29T04:00:24.086Z,15.85
2022-08-29T04:15:24.235Z,15.75
2022-08-29T04:30:24.073Z,15.55
2022-08-29T04:45:24.108Z,15.73
2022-08-29T05:00:24.142Z,15.48
2022-08-29T05:15:24.414Z,15.52
2022-08-29T05:30:34.746Z,15.10
2022-08-29T05:45:33.264Z,15.10
2022-08-29T06:00:35.106Z,15.53
2022-08-29T06:15:23.418Z,15.80
2022-08-29T06:30:23.511Z,15.97
2022-08-29T06:45:23.125Z,17.62
2022-08-29T07:00:31.756Z,19.58
2022-08-29T07:15:23.167Z,20.53
2022-08-29T07:30:23.386Z,21.60
2022-08-29T07:45:23.207Z,21.73
2022-08-29T08:00:31.041Z,21.62
2022-08-29T08:15:23.675Z,21.40
2022-08-29T08:30:26.194Z,21.20
2022-08-29T08:45:23.464Z,21.58
2022-08-29T09:00:31.041Z,22.80
2022-08-29T09:15:23.395Z,22.27
2022-08-29T09:30:23.854Z,22.13
2022-08-29T09:45:23.458Z,22.80
2022-08-29T10:00:23.498Z,23.10
2022-08-29T10:15:39.879Z,23.07
2022-08-29T10:22:27.451Z,23.90
2022-08-29T10:37:14.677Z,23.62
2022-08-29T10:40:17.726Z,22.50
2022-08-29T10:54:50.796Z,24.28
2022-08-29T11:09:50.247Z,24.33
2022-08-29T11:15:23.251Z,24.20
2022-08-29T11:30:23.679Z,24.75
2022-08-29T11:45:23.574Z,25.00
2022-08-29T12:00:32.391Z,25.15
2022-08-29T12:15:23.711Z,25.50
2022-08-29T12:30:23.620Z,26.20
2022-08-29T12:45:23.769Z,26.50
2022-08-29T13:00:48.233Z,26.90
2022-08-29T13:02:38.305Z,25.50
2022-08-29T13:15:23.638Z,26.33
2022-08-29T13:30:37.468Z,26.55
2022-08-29T13:45:23.720Z,26.70
2022-08-29T14:00:38.205Z,26.83
2022-08-29T14:15:23.881Z,27.20
2022-08-29T14:30:23.967Z,27.52
2022-08-29T14:45:23.977Z,27.38
2022-08-29T15:00:23.889Z,27.80
2022-08-29T15:15:24.475Z,28.03
2022-08-29T15:31:04.254Z,28.03
2022-08-29T15:45:25.839Z,27.98
2022-08-29T16:00:40.434Z,27.50
2022-08-29T16:15:25.104Z,28.20
2022-08-29T16:30:30.436Z,27.98
2022-08-29T16:45:24.938Z,27.65
2022-08-29T17:00:52.862Z,27.28
2022-08-29T17:15:25.285Z,26.90
2022-08-29T17:30:30.339Z,26.42
2022-08-29T17:45:24.036Z,26.00
2022-08-29T18:00:23.939Z,25.38
2022-08-29T18:15:23.665Z,24.77
2022-08-29T18:30:23.435Z,24.50
2022-08-29T18:45:24.112Z,23.90
2022-08-29T19:00:24.020Z,23.45
2022-08-29T19:15:23.410Z,23.08
2022-08-29T19:30:23.305Z,23.05
2022-08-29T19:45:24.133Z,22.30
2022-08-29T20:00:26.624Z,22.45
2022-08-29T20:15:24.962Z,22.23
2022-08-29T20:30:26.185Z,21.80
2022-08-29T20:45:23.423Z,21.73
2022-08-29T21:00:24.619Z,21.42
2022-08-29T21:15:23.325Z,21.28
2022-08-29T21:30:23.818Z,20.95
2022-08-29T21:45:23.604Z,20.70
2022-08-29T22:01:42.439Z,21.50
2022-08-29T22:15:23.690Z,20.35
2022-08-29T22:30:32.102Z,19.98
2022-08-29T22:45:23.658Z,19.30
2022-08-29T23:00:23.739Z,18.90
2022-08-29T23:15:23.652Z,19.45
2022-08-29T23:30:23.393Z,19.17
2022-08-29T23:45:23.657Z,18.88
